sensor_id;sensor_type;location;lat;lon;timestamp;temperature;humidity
14727;DHT22;7454;51.256;8.176;2023-04-08T00:00:22;6.40;82.10
14727;DHT22;7454;51.256;8.176;2023-04-08T00:02:48;6.40;82.20
14727;DHT22;7454;51.256;8.176;2023-04-08T00:05:13;6.40;82.10
14727;DHT22;7454;51.256;8.176;2023-04-08T00:07:39;6.40;82.20
14727;DHT22;7454;51.256;8.176;2023-04-08T00:10:05;6.50;82.00
14727;DHT22;7454;51.256;8.176;2023-04-08T00:12:31;6.40;82.10
14727;DHT22;7454;51.256;8.176;2023-04-08T00:14:57;6.50;81.90
14727;DHT22;7454;51.256;8.176;2023-04-08T00:17:23;6.40;82.00
14727;DHT22;7454;51.256;8.176;2023-04-08T00:19:48;6.50;82.10
14727;DHT22;7454;51.256;8.176;2023-04-08T00:22:14;6.50;82.30
14727;DHT22;7454;51.256;8.176;2023-04-08T00:24:40;6.50;82.30
14727;DHT22;7454;51.256;8.176;2023-04-08T00:27:05;6.50;82.30
14727;DHT22;7454;51.256;8.176;2023-04-08T00:29:31;6.50;82.00
14727;DHT22;7454;51.256;8.176;2023-04-08T00:31:57;6.60;81.90
14727;DHT22;7454;51.256;8.176;2023-04-08T00:34:23;6.50;81.90
14727;DHT22;7454;51.256;8.176;2023-04-08T00:36:49;6.50;81.70
14727;DHT22;7454;51.256;8.176;2023-04-08T00:39:14;6.50;81.80
14727;DHT22;7454;51.256;8.176;2023-04-08T00:41:40;6.50;81.90
14727;DHT22;7454;51.256;8.176;2023-04-08T00:44:06;6.50;82.00
14727;DHT22;7454;51.256;8.176;2023-04-08T00:46:35;6.50;82.20
14727;DHT22;7454;51.256;8.176;2023-04-08T00:49:04;6.50;81.40
14727;DHT22;7454;51.256;8.176;2023-04-08T00:51:31;6.50;81.50
14727;DHT22;7454;51.256;8.176;2023-04-08T00:53:58;6.50;81.70
14727;DHT22;7454;51.256;8.176;2023-04-08T00:56:25;6.60;81.80
14727;DHT22;7454;51.256;8.176;2023-04-08T00:58:51;6.50;81.70
14727;DHT22;7454;51.256;8.176;2023-04-08T01:03:56;6.50;81.80
14727;DHT22;7454;51.256;8.176;2023-04-08T01:06:40;6.50;81.80
14727;DHT22;7454;51.256;8.176;2023-04-08T01:09:22;6.50;82.00
14727;DHT22;7454;51.256;8.176;2023-04-08T01:11:50;6.50;82.00
14727;DHT22;7454;51.256;8.176;2023-04-08T01:14:19;6.50;81.90
14727;DHT22;7454;51.256;8.176;2023-04-08T01:16:45;6.50;81.80
14727;DHT22;7454;51.256;8.176;2023-04-08T01:19:16;6.50;82.00
14727;DHT22;7454;51.256;8.176;2023-04-08T01:21:45;6.50;81.80
14727;DHT22;7454;51.256;8.176;2023-04-08T01:24:14;6.60;81.70
14727;DHT22;7454;51.256;8.176;2023-04-08T01:26:44;6.50;81.80
14727;DHT22;7454;51.256;8.176;2023-04-08T01:29:09;6.50;81.70
14727;DHT22;7454;51.256;8.176;2023-04-08T01:31:36;6.50;81.60
14727;DHT22;7454;51.256;8.176;2023-04-08T01:34:03;6.50;81.80
14727;DHT22;7454;51.256;8.176;2023-04-08T01:36:30;6.50;81.70
14727;DHT22;7454;51.256;8.176;2023-04-08T01:38:57;6.60;81.10
14727;DHT22;7454;51.256;8.176;2023-04-08T01:41:25;6.50;81.30
14727;DHT22;7454;51.256;8.176;2023-04-08T01:43:50;6.50;81.40
14727;DHT22;7454;51.256;8.176;2023-04-08T01:46:16;6.50;81.70
14727;DHT22;7454;51.256;8.176;2023-04-08T01:48:43;6.50;81.60
14727;DHT22;7454;51.256;8.176;2023-04-08T01:51:09;6.50;81.40
14727;DHT22;7454;51.256;8.176;2023-04-08T01:53:35;6.50;81.30
14727;DHT22;7454;51.256;8.176;2023-04-08T01:56:05;6.50;81.20
14727;DHT22;7454;51.256;8.176;2023-04-08T01:58:37;6.50;81.30
14727;DHT22;7454;51.256;8.176;2023-04-08T02:01:05;6.50;81.20
14727;DHT22;7454;51.256;8.176;2023-04-08T02:03:36;6.50;81.60
14727;DHT22;7454;51.256;8.176;2023-04-08T02:06:02;6.50;81.40
14727;DHT22;7454;51.256;8.176;2023-04-08T02:08:28;6.50;81.50
14727;DHT22;7454;51.256;8.176;2023-04-08T02:10:53;6.50;81.20
14727;DHT22;7454;51.256;8.176;2023-04-08T02:13:19;6.50;81.30
14727;DHT22;7454;51.256;8.176;2023-04-08T02:15:46;6.50;81.70
14727;DHT22;7454;51.256;8.176;2023-04-08T02:18:21;6.50;81.50
14727;DHT22;7454;51.256;8.176;2023-04-08T02:20:52;6.50;81.30
14727;DHT22;7454;51.256;8.176;2023-04-08T02:23:23;6.50;81.10
14727;DHT22;7454;51.256;8.176;2023-04-08T02:25:49;6.50;81.00
14727;DHT22;7454;51.256;8.176;2023-04-08T02:28:17;6.50;81.10
14727;DHT22;7454;51.256;8.176;2023-04-08T02:30:49;6.50;81.10
14727;DHT22;7454;51.256;8.176;2023-04-08T02:33:17;6.50;81.10
14727;DHT22;7454;51.256;8.176;2023-04-08T02:35:44;6.50;81.20
14727;DHT22;7454;51.256;8.176;2023-04-08T02:38:13;6.50;81.00
14727;DHT22;7454;51.256;8.176;2023-04-08T02:40:39;6.50;81.20
14727;DHT22;7454;51.256;8.176;2023-04-08T02:43:04;6.50;81.20
14727;DHT22;7454;51.256;8.176;2023-04-08T02:45:31;6.50;80.90
14727;DHT22;7454;51.256;8.176;2023-04-08T02:48:07;6.50;81.00
14727;DHT22;7454;51.256;8.176;2023-04-08T02:50:33;6.40;81.00
14727;DHT22;7454;51.256;8.176;2023-04-08T02:52:59;6.40;80.80
14727;DHT22;7454;51.256;8.176;2023-04-08T02:55:25;6.40;81.00
14727;DHT22;7454;51.256;8.176;2023-04-08T02:57:51;6.40;81.20
14727;DHT22;7454;51.256;8.176;2023-04-08T03:00:17;6.40;81.10
14727;DHT22;7454;51.256;8.176;2023-04-08T03:02:42;6.40;81.30
14727;DHT22;7454;51.256;8.176;2023-04-08T03:05:08;6.40;81.20
14727;DHT22;7454;51.256;8.176;2023-04-08T03:07:34;6.40;81.00
14727;DHT22;7454;51.256;8.176;2023-04-08T03:10:02;6.40;81.10
14727;DHT22;7454;51.256;8.176;2023-04-08T03:12:28;6.40;81.30
14727;DHT22;7454;51.256;8.176;2023-04-08T03:14:53;6.30;81.30
14727;DHT22;7454;51.256;8.176;2023-04-08T03:17:19;6.30;81.20
14727;DHT22;7454;51.256;8.176;2023-04-08T03:19:45;6.30;81.20
14727;DHT22;7454;51.256;8.176;2023-04-08T03:22:11;6.30;81.40
14727;DHT22;7454;51.256;8.176;2023-04-08T03:24:37;6.30;81.30
14727;DHT22;7454;51.256;8.176;2023-04-08T03:27:03;6.30;81.30
14727;DHT22;7454;51.256;8.176;2023-04-08T03:29:29;6.30;81.30
14727;DHT22;7454;51.256;8.176;2023-04-08T03:31:54;6.30;81.30
14727;DHT22;7454;51.256;8.176;2023-04-08T03:34:20;6.30;81.60
14727;DHT22;7454;51.256;8.176;2023-04-08T03:36:45;6.30;81.60
14727;DHT22;7454;51.256;8.176;2023-04-08T03:39:11;6.30;81.30
14727;DHT22;7454;51.256;8.176;2023-04-08T03:41:37;6.30;81.40
14727;DHT22;7454;51.256;8.176;2023-04-08T03:44:02;6.30;81.40
14727;DHT22;7454;51.256;8.176;2023-04-08T03:46:28;6.30;81.40
14727;DHT22;7454;51.256;8.176;2023-04-08T03:48:54;6.30;81.30
14727;DHT22;7454;51.256;8.176;2023-04-08T03:51:19;6.30;81.20
14727;DHT22;7454;51.256;8.176;2023-04-08T03:53:45;6.30;81.30
14727;DHT22;7454;51.256;8.176;2023-04-08T03:56:12;6.30;81.40
14727;DHT22;7454;51.256;8.176;2023-04-08T03:58:38;6.20;81.30
14727;DHT22;7454;51.256;8.176;2023-04-08T04:01:03;6.20;81.20
14727;DHT22;7454;51.256;8.176;2023-04-08T04:03:29;6.20;81.40
14727;DHT22;7454;51.256;8.176;2023-04-08T04:05:55;6.20;81.70
14727;DHT22;7454;51.256;8.176;2023-04-08T04:08:21;6.20;81.20
14727;DHT22;7454;51.256;8.176;2023-04-08T04:10:47;6.20;81.30
14727;DHT22;7454;51.256;8.176;2023-04-08T04:13:12;6.20;81.30
14727;DHT22;7454;51.256;8.176;2023-04-08T04:15:38;6.20;81.10
14727;DHT22;7454;51.256;8.176;2023-04-08T04:18:05;6.20;81.20
14727;DHT22;7454;51.256;8.176;2023-04-08T04:20:31;6.20;81.20
14727;DHT22;7454;51.256;8.176;2023-04-08T04:22:56;6.20;81.10
14727;DHT22;7454;51.256;8.176;2023-04-08T04:25:22;6.20;81.10
14727;DHT22;7454;51.256;8.176;2023-04-08T04:27:48;6.20;81.00
14727;DHT22;7454;51.256;8.176;2023-04-08T04:30:14;6.20;80.90
14727;DHT22;7454;51.256;8.176;2023-04-08T04:32:40;6.20;80.80
14727;DHT22;7454;51.256;8.176;2023-04-08T04:35:08;6.20;80.90
14727;DHT22;7454;51.256;8.176;2023-04-08T04:37:37;6.20;80.90
14727;DHT22;7454;51.256;8.176;2023-04-08T04:40:03;6.10;80.90
14727;DHT22;7454;51.256;8.176;2023-04-08T04:42:29;6.10;80.90
14727;DHT22;7454;51.256;8.176;2023-04-08T04:44:56;6.10;81.00
14727;DHT22;7454;51.256;8.176;2023-04-08T04:47:21;6.10;80.90
14727;DHT22;7454;51.256;8.176;2023-04-08T04:49:47;6.10;80.80
14727;DHT22;7454;51.256;8.176;2023-04-08T04:52:13;6.10;80.80
14727;DHT22;7454;51.256;8.176;2023-04-08T04:54:39;6.00;80.70
14727;DHT22;7454;51.256;8.176;2023-04-08T04:57:04;6.00;80.80
14727;DHT22;7454;51.256;8.176;2023-04-08T04:59:30;6.00;80.60
14727;DHT22;7454;51.256;8.176;2023-04-08T05:01:56;6.00;81.00
14727;DHT22;7454;51.256;8.176;2023-04-08T05:04:22;6.00;80.90
14727;DHT22;7454;51.256;8.176;2023-04-08T05:06:48;6.00;80.90
14727;DHT22;7454;51.256;8.176;2023-04-08T05:09:14;6.00;81.00
14727;DHT22;7454;51.256;8.176;2023-04-08T05:11:40;6.00;81.00
14727;DHT22;7454;51.256;8.176;2023-04-08T05:14:05;6.00;81.00
14727;DHT22;7454;51.256;8.176;2023-04-08T05:16:31;5.90;81.00
14727;DHT22;7454;51.256;8.176;2023-04-08T05:18:58;6.00;81.00
14727;DHT22;7454;51.256;8.176;2023-04-08T05:21:23;6.00;81.00
14727;DHT22;7454;51.256;8.176;2023-04-08T05:23:49;6.00;81.10
14727;DHT22;7454;51.256;8.176;2023-04-08T05:26:21;6.00;81.10
14727;DHT22;7454;51.256;8.176;2023-04-08T05:28:47;6.10;81.30
14727;DHT22;7454;51.256;8.176;2023-04-08T05:31:17;6.10;80.90
14727;DHT22;7454;51.256;8.176;2023-04-08T05:33:43;6.00;81.00
14727;DHT22;7454;51.256;8.176;2023-04-08T05:36:09;6.00;81.20
14727;DHT22;7454;51.256;8.176;2023-04-08T05:38:35;6.10;81.30
14727;DHT22;7454;51.256;8.176;2023-04-08T05:41:01;6.10;81.20
14727;DHT22;7454;51.256;8.176;2023-04-08T05:43:27;6.10;81.40
14727;DHT22;7454;51.256;8.176;2023-04-08T05:45:52;6.10;81.00
14727;DHT22;7454;51.256;8.176;2023-04-08T05:48:18;6.10;80.90
14727;DHT22;7454;51.256;8.176;2023-04-08T05:50:43;6.10;81.40
14727;DHT22;7454;51.256;8.176;2023-04-08T05:53:09;6.10;81.30
14727;DHT22;7454;51.256;8.176;2023-04-08T05:55:35;6.20;81.50
14727;DHT22;7454;51.256;8.176;2023-04-08T05:58:01;6.20;81.20
14727;DHT22;7454;51.256;8.176;2023-04-08T06:00:26;6.20;81.20
14727;DHT22;7454;51.256;8.176;2023-04-08T06:02:52;6.30;81.20
14727;DHT22;7454;51.256;8.176;2023-04-08T06:05:18;6.30;81.30
14727;DHT22;7454;51.256;8.176;2023-04-08T06:07:44;6.30;81.30
14727;DHT22;7454;51.256;8.176;2023-04-08T06:10:09;6.30;81.00
14727;DHT22;7454;51.256;8.176;2023-04-08T06:12:35;6.30;81.40
14727;DHT22;7454;51.256;8.176;2023-04-08T06:15:03;6.40;81.40
14727;DHT22;7454;51.256;8.176;2023-04-08T06:17:29;6.40;81.50
14727;DHT22;7454;51.256;8.176;2023-04-08T06:19:54;6.40;81.40
14727;DHT22;7454;51.256;8.176;2023-04-08T06:22:20;6.50;81.20
14727;DHT22;7454;51.256;8.176;2023-04-08T06:24:46;6.50;81.00
14727;DHT22;7454;51.256;8.176;2023-04-08T06:27:12;6.50;81.20
14727;DHT22;7454;51.256;8.176;2023-04-08T06:29:38;6.50;81.40
14727;DHT22;7454;51.256;8.176;2023-04-08T06:32:03;6.50;81.70
14727;DHT22;7454;51.256;8.176;2023-04-08T06:34:30;6.50;81.70
14727;DHT22;7454;51.256;8.176;2023-04-08T06:36:56;6.60;81.80
14727;DHT22;7454;51.256;8.176;2023-04-08T06:39:22;6.60;81.60
14727;DHT22;7454;51.256;8.176;2023-04-08T06:41:48;6.60;81.10
14727;DHT22;7454;51.256;8.176;2023-04-08T06:44:42;6.60;81.10
14727;DHT22;7454;51.256;8.176;2023-04-08T06:47:07;6.70;81.60
14727;DHT22;7454;51.256;8.176;2023-04-08T06:49:33;6.70;81.20
14727;DHT22;7454;51.256;8.176;2023-04-08T06:51:59;6.70;81.10
14727;DHT22;7454;51.256;8.176;2023-04-08T06:54:24;6.70;81.10
14727;DHT22;7454;51.256;8.176;2023-04-08T06:56:50;6.70;81.20
14727;DHT22;7454;51.256;8.176;2023-04-08T06:59:15;6.70;81.50
14727;DHT22;7454;51.256;8.176;2023-04-08T07:01:41;6.60;81.20
14727;DHT22;7454;51.256;8.176;2023-04-08T07:04:07;6.70;81.40
14727;DHT22;7454;51.256;8.176;2023-04-08T07:06:32;6.70;81.50
14727;DHT22;7454;51.256;8.176;2023-04-08T07:08:58;6.70;81.60
14727;DHT22;7454;51.256;8.176;2023-04-08T07:11:24;6.70;81.50
14727;DHT22;7454;51.256;8.176;2023-04-08T07:13:50;6.70;81.60
14727;DHT22;7454;51.256;8.176;2023-04-08T07:16:16;6.70;81.50
14727;DHT22;7454;51.256;8.176;2023-04-08T07:18:42;6.80;81.60
14727;DHT22;7454;51.256;8.176;2023-04-08T07:21:08;6.80;81.30
14727;DHT22;7454;51.256;8.176;2023-04-08T07:23:33;6.90;81.40
14727;DHT22;7454;51.256;8.176;2023-04-08T07:26:02;6.90;81.00
14727;DHT22;7454;51.256;8.176;2023-04-08T07:28:29;7.00;80.80
14727;DHT22;7454;51.256;8.176;2023-04-08T07:30:55;7.10;81.20
14727;DHT22;7454;51.256;8.176;2023-04-08T07:33:21;7.10;81.90
14727;DHT22;7454;51.256;8.176;2023-04-08T07:35:48;7.20;80.80
14727;DHT22;7454;51.256;8.176;2023-04-08T07:38:13;7.30;80.60
14727;DHT22;7454;51.256;8.176;2023-04-08T07:40:39;7.30;80.30
14727;DHT22;7454;51.256;8.176;2023-04-08T07:43:05;7.30;80.30
14727;DHT22;7454;51.256;8.176;2023-04-08T07:45:30;7.40;80.00
14727;DHT22;7454;51.256;8.176;2023-04-08T07:47:56;7.40;80.00
14727;DHT22;7454;51.256;8.176;2023-04-08T07:50:21;7.40;80.20
14727;DHT22;7454;51.256;8.176;2023-04-08T07:52:47;7.40;80.20
14727;DHT22;7454;51.256;8.176;2023-04-08T07:55:13;7.40;79.90
14727;DHT22;7454;51.256;8.176;2023-04-08T07:57:39;7.40;79.80
14727;DHT22;7454;51.256;8.176;2023-04-08T08:00:05;7.40;80.00
14727;DHT22;7454;51.256;8.176;2023-04-08T08:02:38;7.30;80.00
14727;DHT22;7454;51.256;8.176;2023-04-08T08:05:04;7.30;80.10
14727;DHT22;7454;51.256;8.176;2023-04-08T08:07:30;7.30;79.90
14727;DHT22;7454;51.256;8.176;2023-04-08T08:09:56;7.30;79.90
14727;DHT22;7454;51.256;8.176;2023-04-08T08:12:22;7.30;79.80
14727;DHT22;7454;51.256;8.176;2023-04-08T08:14:47;7.30;79.70
14727;DHT22;7454;51.256;8.176;2023-04-08T08:17:13;7.30;79.50
14727;DHT22;7454;51.256;8.176;2023-04-08T08:19:38;7.30;79.80
14727;DHT22;7454;51.256;8.176;2023-04-08T08:22:04;7.30;79.60
14727;DHT22;7454;51.256;8.176;2023-04-08T08:24:30;7.30;79.40
14727;DHT22;7454;51.256;8.176;2023-04-08T08:26:55;7.30;79.30
14727;DHT22;7454;51.256;8.176;2023-04-08T08:29:21;7.30;79.40
14727;DHT22;7454;51.256;8.176;2023-04-08T08:31:47;7.30;79.20
14727;DHT22;7454;51.256;8.176;2023-04-08T08:34:13;7.40;79.40
14727;DHT22;7454;51.256;8.176;2023-04-08T08:36:39;7.40;79.50
14727;DHT22;7454;51.256;8.176;2023-04-08T08:39:04;7.40;79.40
14727;DHT22;7454;51.256;8.176;2023-04-08T08:41:33;7.40;79.30
14727;DHT22;7454;51.256;8.176;2023-04-08T08:44:01;7.50;79.30
14727;DHT22;7454;51.256;8.176;2023-04-08T08:46:27;7.60;79.40
14727;DHT22;7454;51.256;8.176;2023-04-08T08:48:53;7.60;79.70
14727;DHT22;7454;51.256;8.176;2023-04-08T08:51:18;7.70;79.40
14727;DHT22;7454;51.256;8.176;2023-04-08T08:53:44;7.70;79.40
14727;DHT22;7454;51.256;8.176;2023-04-08T08:56:10;7.80;79.40
14727;DHT22;7454;51.256;8.176;2023-04-08T08:58:36;7.80;79.10
14727;DHT22;7454;51.256;8.176;2023-04-08T09:01:26;7.70;78.90
14727;DHT22;7454;51.256;8.176;2023-04-08T09:04:08;7.70;79.10
14727;DHT22;7454;51.256;8.176;2023-04-08T09:06:45;7.80;79.30
14727;DHT22;7454;51.256;8.176;2023-04-08T09:09:11;7.80;78.70
14727;DHT22;7454;51.256;8.176;2023-04-08T09:11:41;7.80;78.90
14727;DHT22;7454;51.256;8.176;2023-04-08T09:14:17;7.90;78.80
14727;DHT22;7454;51.256;8.176;2023-04-08T09:16:46;7.90;78.60
14727;DHT22;7454;51.256;8.176;2023-04-08T09:19:12;7.90;78.70
14727;DHT22;7454;51.256;8.176;2023-04-08T09:21:38;7.80;78.60
14727;DHT22;7454;51.256;8.176;2023-04-08T09:24:06;7.90;78.60
14727;DHT22;7454;51.256;8.176;2023-04-08T09:26:32;7.90;78.50
14727;DHT22;7454;51.256;8.176;2023-04-08T09:28:59;7.90;78.50
14727;DHT22;7454;51.256;8.176;2023-04-08T09:31:27;7.80;78.50
14727;DHT22;7454;51.256;8.176;2023-04-08T09:33:57;7.80;78.70
14727;DHT22;7454;51.256;8.176;2023-04-08T09:36:26;7.80;78.50
14727;DHT22;7454;51.256;8.176;2023-04-08T09:38:52;7.80;78.50
14727;DHT22;7454;51.256;8.176;2023-04-08T09:41:19;7.80;78.60
14727;DHT22;7454;51.256;8.176;2023-04-08T09:43:52;7.80;78.30
14727;DHT22;7454;51.256;8.176;2023-04-08T09:46:25;7.80;78.70
14727;DHT22;7454;51.256;8.176;2023-04-08T09:49:09;7.80;78.70
14727;DHT22;7454;51.256;8.176;2023-04-08T09:51:44;7.80;78.70
14727;DHT22;7454;51.256;8.176;2023-04-08T09:54:14;7.80;78.60
14727;DHT22;7454;51.256;8.176;2023-04-08T09:56:47;7.80;78.30
14727;DHT22;7454;51.256;8.176;2023-04-08T09:59:16;7.80;78.20
14727;DHT22;7454;51.256;8.176;2023-04-08T10:01:49;7.90;78.40
14727;DHT22;7454;51.256;8.176;2023-04-08T10:04:17;7.90;78.20
14727;DHT22;7454;51.256;8.176;2023-04-08T10:06:47;7.90;77.80
14727;DHT22;7454;51.256;8.176;2023-04-08T10:09:19;7.90;77.70
14727;DHT22;7454;51.256;8.176;2023-04-08T10:11:46;8.00;77.80
14727;DHT22;7454;51.256;8.176;2023-04-08T10:14:12;8.10;78.20
14727;DHT22;7454;51.256;8.176;2023-04-08T10:16:38;8.20;77.90
14727;DHT22;7454;51.256;8.176;2023-04-08T10:19:06;8.20;77.50
14727;DHT22;7454;51.256;8.176;2023-04-08T10:27:42;8.30;77.90
14727;DHT22;7454;51.256;8.176;2023-04-08T10:30:54;8.50;78.10
14727;DHT22;7454;51.256;8.176;2023-04-08T10:32:57;8.60;78.20
14727;DHT22;7454;51.256;8.176;2023-04-08T10:35:28;8.70;77.90
14727;DHT22;7454;51.256;8.176;2023-04-08T10:37:54;8.70;78.00
14727;DHT22;7454;51.256;8.176;2023-04-08T10:40:20;8.80;77.90
14727;DHT22;7454;51.256;8.176;2023-04-08T10:42:45;8.80;78.00
14727;DHT22;7454;51.256;8.176;2023-04-08T10:45:17;8.90;77.90
14727;DHT22;7454;51.256;8.176;2023-04-08T10:47:43;8.90;78.20
14727;DHT22;7454;51.256;8.176;2023-04-08T10:50:13;9.10;78.40
14727;DHT22;7454;51.256;8.176;2023-04-08T10:52:49;9.10;78.20
14727;DHT22;7454;51.256;8.176;2023-04-08T10:55:23;9.20;78.20
14727;DHT22;7454;51.256;8.176;2023-04-08T10:57:49;9.30;78.30
14727;DHT22;7454;51.256;8.176;2023-04-08T11:01:01;9.20;78.00
14727;DHT22;7454;51.256;8.176;2023-04-08T11:03:08;9.30;78.10
14727;DHT22;7454;51.256;8.176;2023-04-08T11:05:35;9.30;78.30
14727;DHT22;7454;51.256;8.176;2023-04-08T11:08:02;9.50;78.40
14727;DHT22;7454;51.256;8.176;2023-04-08T11:10:28;9.40;78.20
14727;DHT22;7454;51.256;8.176;2023-04-08T11:12:55;9.40;78.50
14727;DHT22;7454;51.256;8.176;2023-04-08T11:15:21;9.50;78.20
14727;DHT22;7454;51.256;8.176;2023-04-08T11:17:48;9.50;78.40
14727;DHT22;7454;51.256;8.176;2023-04-08T11:20:14;9.50;78.40
14727;DHT22;7454;51.256;8.176;2023-04-08T11:22:41;9.60;78.30
14727;DHT22;7454;51.256;8.176;2023-04-08T11:25:06;9.60;78.30
14727;DHT22;7454;51.256;8.176;2023-04-08T11:27:34;9.60;78.40
14727;DHT22;7454;51.256;8.176;2023-04-08T11:30:00;9.70;78.40
14727;DHT22;7454;51.256;8.176;2023-04-08T11:32:26;9.70;78.20
14727;DHT22;7454;51.256;8.176;2023-04-08T11:34:53;9.70;78.20
14727;DHT22;7454;51.256;8.176;2023-04-08T11:37:19;9.80;78.50
14727;DHT22;7454;51.256;8.176;2023-04-08T11:39:45;9.70;78.40
14727;DHT22;7454;51.256;8.176;2023-04-08T11:42:29;9.80;78.30
14727;DHT22;7454;51.256;8.176;2023-04-08T11:44:56;9.80;78.50
14727;DHT22;7454;51.256;8.176;2023-04-08T11:47:31;9.70;78.30
14727;DHT22;7454;51.256;8.176;2023-04-08T11:49:58;9.80;78.50
14727;DHT22;7454;51.256;8.176;2023-04-08T11:55:09;9.80;78.50
14727;DHT22;7454;51.256;8.176;2023-04-08T11:57:46;9.80;78.80
14727;DHT22;7454;51.256;8.176;2023-04-08T12:00:12;9.80;78.50
14727;DHT22;7454;51.256;8.176;2023-04-08T12:02:38;9.90;78.60
14727;DHT22;7454;51.256;8.176;2023-04-08T12:05:04;9.90;78.40
14727;DHT22;7454;51.256;8.176;2023-04-08T12:07:30;10.00;78.80
14727;DHT22;7454;51.256;8.176;2023-04-08T12:09:56;10.00;78.50
14727;DHT22;7454;51.256;8.176;2023-04-08T12:12:22;10.00;78.40
14727;DHT22;7454;51.256;8.176;2023-04-08T12:14:48;9.90;78.30
14727;DHT22;7454;51.256;8.176;2023-04-08T12:17:14;9.90;78.50
14727;DHT22;7454;51.256;8.176;2023-04-08T12:19:39;9.90;78.70
14727;DHT22;7454;51.256;8.176;2023-04-08T12:22:05;9.90;78.70
14727;DHT22;7454;51.256;8.176;2023-04-08T12:24:31;10.00;78.70
14727;DHT22;7454;51.256;8.176;2023-04-08T12:26:57;10.00;78.70
14727;DHT22;7454;51.256;8.176;2023-04-08T12:29:23;10.10;78.50
14727;DHT22;7454;51.256;8.176;2023-04-08T12:31:49;10.20;78.50
14727;DHT22;7454;51.256;8.176;2023-04-08T12:34:14;10.20;78.70
14727;DHT22;7454;51.256;8.176;2023-04-08T12:36:41;10.30;78.70
14727;DHT22;7454;51.256;8.176;2023-04-08T12:39:07;10.40;78.80
14727;DHT22;7454;51.256;8.176;2023-04-08T12:41:33;10.40;78.50
14727;DHT22;7454;51.256;8.176;2023-04-08T12:43:58;10.50;78.30
14727;DHT22;7454;51.256;8.176;2023-04-08T12:46:24;10.50;78.40
14727;DHT22;7454;51.256;8.176;2023-04-08T12:48:50;10.60;78.50
14727;DHT22;7454;51.256;8.176;2023-04-08T12:51:16;10.70;78.70
14727;DHT22;7454;51.256;8.176;2023-04-08T12:53:41;10.70;78.50
14727;DHT22;7454;51.256;8.176;2023-04-08T12:56:07;10.60;78.50
14727;DHT22;7454;51.256;8.176;2023-04-08T12:58:33;10.70;78.40
14727;DHT22;7454;51.256;8.176;2023-04-08T13:00:58;10.70;78.50
14727;DHT22;7454;51.256;8.176;2023-04-08T13:03:24;10.70;78.60
14727;DHT22;7454;51.256;8.176;2023-04-08T13:05:51;10.80;78.60
14727;DHT22;7454;51.256;8.176;2023-04-08T13:08:16;10.80;78.50
14727;DHT22;7454;51.256;8.176;2023-04-08T13:10:42;10.70;78.50
14727;DHT22;7454;51.256;8.176;2023-04-08T13:13:08;10.70;78.50
14727;DHT22;7454;51.256;8.176;2023-04-08T13:15:34;10.60;78.30
14727;DHT22;7454;51.256;8.176;2023-04-08T13:17:59;10.60;78.50
14727;DHT22;7454;51.256;8.176;2023-04-08T13:20:25;10.60;78.50
14727;DHT22;7454;51.256;8.176;2023-04-08T13:22:51;10.60;78.70
14727;DHT22;7454;51.256;8.176;2023-04-08T13:25:17;10.50;78.50
14727;DHT22;7454;51.256;8.176;2023-04-08T13:27:43;10.50;78.70
14727;DHT22;7454;51.256;8.176;2023-04-08T13:30:08;10.50;78.70
14727;DHT22;7454;51.256;8.176;2023-04-08T13:32:35;10.50;78.60
14727;DHT22;7454;51.256;8.176;2023-04-08T13:35:01;10.50;78.60
14727;DHT22;7454;51.256;8.176;2023-04-08T13:37:26;10.50;78.60
14727;DHT22;7454;51.256;8.176;2023-04-08T13:39:52;10.50;78.70
14727;DHT22;7454;51.256;8.176;2023-04-08T13:42:18;10.60;78.90
14727;DHT22;7454;51.256;8.176;2023-04-08T13:44:44;10.70;78.90
14727;DHT22;7454;51.256;8.176;2023-04-08T13:47:10;10.70;78.80
14727;DHT22;7454;51.256;8.176;2023-04-08T13:49:36;10.80;78.80
14727;DHT22;7454;51.256;8.176;2023-04-08T13:52:01;10.80;78.80
14727;DHT22;7454;51.256;8.176;2023-04-08T13:54:27;10.80;78.70
14727;DHT22;7454;51.256;8.176;2023-04-08T13:56:53;10.80;78.70
14727;DHT22;7454;51.256;8.176;2023-04-08T13:59:18;10.70;78.60
14727;DHT22;7454;51.256;8.176;2023-04-08T14:01:44;10.70;78.50
14727;DHT22;7454;51.256;8.176;2023-04-08T14:04:09;10.60;78.60
14727;DHT22;7454;51.256;8.176;2023-04-08T14:06:36;10.50;78.60
14727;DHT22;7454;51.256;8.176;2023-04-08T14:09:01;10.40;78.70
14727;DHT22;7454;51.256;8.176;2023-04-08T14:11:27;10.40;78.70
14727;DHT22;7454;51.256;8.176;2023-04-08T14:13:53;10.30;78.80
14727;DHT22;7454;51.256;8.176;2023-04-08T14:16:18;10.20;78.80
14727;DHT22;7454;51.256;8.176;2023-04-08T14:18:44;10.00;78.70
14727;DHT22;7454;51.256;8.176;2023-04-08T14:21:10;10.00;78.90
14727;DHT22;7454;51.256;8.176;2023-04-08T14:23:38;9.90;78.80
14727;DHT22;7454;51.256;8.176;2023-04-08T14:26:03;9.90;78.90
14727;DHT22;7454;51.256;8.176;2023-04-08T14:28:29;9.90;79.00
14727;DHT22;7454;51.256;8.176;2023-04-08T14:30:55;10.00;79.00
14727;DHT22;7454;51.256;8.176;2023-04-08T14:33:21;10.10;79.30
14727;DHT22;7454;51.256;8.176;2023-04-08T14:35:47;10.20;79.20
14727;DHT22;7454;51.256;8.176;2023-04-08T14:38:12;10.30;79.30
14727;DHT22;7454;51.256;8.176;2023-04-08T14:40:38;10.30;79.10
14727;DHT22;7454;51.256;8.176;2023-04-08T14:43:03;10.40;79.10
14727;DHT22;7454;51.256;8.176;2023-04-08T14:45:29;10.30;78.80
14727;DHT22;7454;51.256;8.176;2023-04-08T14:47:55;10.30;78.80
14727;DHT22;7454;51.256;8.176;2023-04-08T14:50:21;10.30;78.90
14727;DHT22;7454;51.256;8.176;2023-04-08T14:52:47;10.30;79.10
14727;DHT22;7454;51.256;8.176;2023-04-08T14:55:25;10.20;78.90
14727;DHT22;7454;51.256;8.176;2023-04-08T14:57:52;10.30;79.00
14727;DHT22;7454;51.256;8.176;2023-04-08T15:00:18;10.20;79.00
14727;DHT22;7454;51.256;8.176;2023-04-08T15:02:44;10.20;79.10
14727;DHT22;7454;51.256;8.176;2023-04-08T15:05:09;10.20;79.10
14727;DHT22;7454;51.256;8.176;2023-04-08T15:07:35;10.20;79.00
14727;DHT22;7454;51.256;8.176;2023-04-08T15:10:01;10.20;79.20
14727;DHT22;7454;51.256;8.176;2023-04-08T15:12:27;10.10;79.10
14727;DHT22;7454;51.256;8.176;2023-04-08T15:14:53;10.20;79.30
14727;DHT22;7454;51.256;8.176;2023-04-08T15:17:19;10.20;79.20
14727;DHT22;7454;51.256;8.176;2023-04-08T15:19:44;10.20;79.00
14727;DHT22;7454;51.256;8.176;2023-04-08T15:22:11;10.30;79.20
14727;DHT22;7454;51.256;8.176;2023-04-08T15:24:37;10.30;79.10
14727;DHT22;7454;51.256;8.176;2023-04-08T15:27:02;10.30;79.10
14727;DHT22;7454;51.256;8.176;2023-04-08T15:29:28;10.30;79.10
14727;DHT22;7454;51.256;8.176;2023-04-08T15:31:54;10.30;79.10
14727;DHT22;7454;51.256;8.176;2023-04-08T15:34:19;10.30;79.20
14727;DHT22;7454;51.256;8.176;2023-04-08T15:36:45;10.30;79.10
14727;DHT22;7454;51.256;8.176;2023-04-08T15:39:11;10.20;79.00
14727;DHT22;7454;51.256;8.176;2023-04-08T15:41:37;10.20;79.00
14727;DHT22;7454;51.256;8.176;2023-04-08T15:44:03;10.20;78.90
14727;DHT22;7454;51.256;8.176;2023-04-08T15:46:29;10.10;79.00
14727;DHT22;7454;51.256;8.176;2023-04-08T15:48:54;10.10;79.10
14727;DHT22;7454;51.256;8.176;2023-04-08T15:51:20;10.10;79.20
14727;DHT22;7454;51.256;8.176;2023-04-08T15:53:46;10.20;78.90
14727;DHT22;7454;51.256;8.176;2023-04-08T15:56:12;10.20;78.90
14727;DHT22;7454;51.256;8.176;2023-04-08T15:58:39;10.10;78.80
14727;DHT22;7454;51.256;8.176;2023-04-08T16:01:04;10.10;78.90
14727;DHT22;7454;51.256;8.176;2023-04-08T16:03:32;10.20;79.10
14727;DHT22;7454;51.256;8.176;2023-04-08T16:05:57;10.10;78.90